createdAt,value
2023-03-05T00:02:07.070Z,59.66
2023-03-05T00:07:12.619Z,61.04
2023-03-05T00:12:17.496Z,61.96
2023-03-05T00:17:20.814Z,68.11
2023-03-05T00:22:24.133Z,59.22
2023-03-05T00:27:27.375Z,58.34
2023-03-05T00:32:31.334Z,59.58
2023-03-05T00:37:34.699Z,60.08
2023-03-05T00:42:39.022Z,61.97
2023-03-05T00:47:42.240Z,65.37
2023-03-05T00:52:45.577Z,64.39
2023-03-05T00:57:48.875Z,63.05
2023-03-05T01:02:52.253Z,62.86
2023-03-05T01:07:56.865Z,62.36
2023-03-05T01:13:00.703Z,62.12
2023-03-05T01:18:04.056Z,61.83
2023-03-05T01:23:07.697Z,62.52
2023-03-05T01:28:11.318Z,62.39
2023-03-05T01:33:14.617Z,62.71
2023-03-05T01:38:18.419Z,62.85
2023-03-05T01:43:30.401Z,63.03
2023-03-05T01:48:33.745Z,62.88
2023-03-05T01:53:37.437Z,63.00
2023-03-05T01:58:41.682Z,62.91
2023-03-05T02:03:45.667Z,62.69
2023-03-05T02:08:49.017Z,63.10
2023-03-05T02:13:52.768Z,63.89
2023-03-05T02:18:56.104Z,64.34
2023-03-05T02:23:59.389Z,63.94
2023-03-05T02:29:05.385Z,64.03
2023-03-05T02:34:08.738Z,64.70
2023-03-05T02:39:12.025Z,64.86
2023-03-05T02:44:15.426Z,63.64
2023-03-05T02:49:18.796Z,65.11
2023-03-05T02:54:22.171Z,65.11
2023-03-05T02:59:25.723Z,65.50
2023-03-05T03:04:29.248Z,65.39
2023-03-05T03:09:36.236Z,66.00
2023-03-05T03:14:42.947Z,66.24
2023-03-05T03:19:47.057Z,66.65
2023-03-05T03:24:50.290Z,67.06
2023-03-05T03:29:53.523Z,67.07
2023-03-05T03:34:57.991Z,66.88
2023-03-05T03:40:01.366Z,66.46
2023-03-05T03:45:05.295Z,65.91
2023-03-05T03:50:09.378Z,65.34
2023-03-05T03:55:12.712Z,64.86
2023-03-05T04:00:16.685Z,64.77
2023-03-05T04:05:20.165Z,64.58
2023-03-05T04:10:23.479Z,64.55
